sensor_id;sensor_type;location;lat;lon;timestamp;temperature;humidity
37242;DHT22;23135;51.078;12.108;2023-04-24T00:00:32;11.70;99.90
37242;DHT22;23135;51.078;12.108;2023-04-24T00:02:58;11.70;99.90
37242;DHT22;23135;51.078;12.108;2023-04-24T00:05:24;11.60;99.90
37242;DHT22;23135;51.078;12.108;2023-04-24T00:07:50;11.60;99.90
37242;DHT22;23135;51.078;12.108;2023-04-24T00:10:19;11.50;99.90
37242;DHT22;23135;51.078;12.108;2023-04-24T00:12:44;11.50;99.90
37242;DHT22;23135;51.078;12.108;2023-04-24T00:15:10;11.50;99.90
37242;DHT22;23135;51.078;12.108;2023-04-24T00:17:36;11.40;99.90
37242;DHT22;23135;51.078;12.108;2023-04-24T00:20:03;11.40;99.90
37242;DHT22;23135;51.078;12.108;2023-04-24T00:22:30;11.40;99.90
37242;DHT22;23135;51.078;12.108;2023-04-24T00:24:56;11.40;99.90
37242;DHT22;23135;51.078;12.108;2023-04-24T00:27:22;11.40;99.90
37242;DHT22;23135;51.078;12.108;2023-04-24T00:29:48;11.40;99.90
37242;DHT22;23135;51.078;12.108;2023-04-24T00:32:13;11.30;99.90
37242;DHT22;23135;51.078;12.108;2023-04-24T00:34:39;11.30;99.90
37242;DHT22;23135;51.078;12.108;2023-04-24T00:37:05;11.30;99.90
37242;DHT22;23135;51.078;12.108;2023-04-24T00:39:31;11.30;99.90
37242;DHT22;23135;51.078;12.108;2023-04-24T00:41:57;11.40;99.90
37242;DHT22;23135;51.078;12.108;2023-04-24T00:44:23;11.40;99.90
37242;DHT22;23135;51.078;12.108;2023-04-24T00:46:49;11.40;99.90
37242;DHT22;23135;51.078;12.108;2023-04-24T00:49:18;11.30;99.90
37242;DHT22;23135;51.078;12.108;2023-04-24T00:51:44;11.30;99.90
37242;DHT22;23135;51.078;12.108;2023-04-24T00:54:11;11.40;99.90
37242;DHT22;23135;51.078;12.108;2023-04-24T00:56:37;11.40;99.90
37242;DHT22;23135;51.078;12.108;2023-04-24T00:59:03;11.40;99.90
37242;DHT22;23135;51.078;12.108;2023-04-24T01:01:29;11.40;99.90
37242;DHT22;23135;51.078;12.108;2023-04-24T01:03:56;11.50;99.90
37242;DHT22;23135;51.078;12.108;2023-04-24T01:06:23;11.50;99.90
37242;DHT22;23135;51.078;12.108;2023-04-24T01:08:48;11.50;99.90
37242;DHT22;23135;51.078;12.108;2023-04-24T01:11:15;11.40;99.90
37242;DHT22;23135;51.078;12.108;2023-04-24T01:13:41;11.40;99.90
37242;DHT22;23135;51.078;12.108;2023-04-24T01:16:06;11.40;99.90
37242;DHT22;23135;51.078;12.108;2023-04-24T01:18:32;11.50;99.90
37242;DHT22;23135;51.078;12.108;2023-04-24T01:20:59;11.40;99.90
37242;DHT22;23135;51.078;12.108;2023-04-24T01:23:25;11.40;99.90
37242;DHT22;23135;51.078;12.108;2023-04-24T01:25:51;11.30;99.90
37242;DHT22;23135;51.078;12.108;2023-04-24T01:28:17;11.30;99.90
37242;DHT22;23135;51.078;12.108;2023-04-24T01:30:43;11.20;99.90
37242;DHT22;23135;51.078;12.108;2023-04-24T01:33:09;11.20;99.90
37242;DHT22;23135;51.078;12.108;2023-04-24T01:35:36;11.20;99.90
37242;DHT22;23135;51.078;12.108;2023-04-24T01:38:03;11.10;99.90
37242;DHT22;23135;51.078;12.108;2023-04-24T01:40:28;11.10;99.90
37242;DHT22;23135;51.078;12.108;2023-04-24T01:42:54;11.10;99.90
37242;DHT22;23135;51.078;12.108;2023-04-24T01:45:19;11.00;99.90
37242;DHT22;23135;51.078;12.108;2023-04-24T01:47:45;11.00;99.90
37242;DHT22;23135;51.078;12.108;2023-04-24T01:50:11;10.90;99.90
37242;DHT22;23135;51.078;12.108;2023-04-24T01:52:37;10.90;99.90
37242;DHT22;23135;51.078;12.108;2023-04-24T01:55:03;10.90;99.90
37242;DHT22;23135;51.078;12.108;2023-04-24T01:57:30;10.90;99.90
37242;DHT22;23135;51.078;12.108;2023-04-24T01:59:56;10.90;99.90
37242;DHT22;23135;51.078;12.108;2023-04-24T02:02:22;10.80;99.90
37242;DHT22;23135;51.078;12.108;2023-04-24T02:04:49;10.90;99.90
37242;DHT22;23135;51.078;12.108;2023-04-24T02:07:15;10.80;99.90
37242;DHT22;23135;51.078;12.108;2023-04-24T02:09:41;10.80;99.90
37242;DHT22;23135;51.078;12.108;2023-04-24T02:12:06;10.80;99.90
37242;DHT22;23135;51.078;12.108;2023-04-24T02:14:32;10.80;99.90
37242;DHT22;23135;51.078;12.108;2023-04-24T02:16:58;10.80;99.90
37242;DHT22;23135;51.078;12.108;2023-04-24T02:19:24;10.70;99.90
37242;DHT22;23135;51.078;12.108;2023-04-24T02:21:49;10.80;99.90
37242;DHT22;23135;51.078;12.108;2023-04-24T02:24:15;10.80;99.90
37242;DHT22;23135;51.078;12.108;2023-04-24T02:26:41;10.80;99.90
37242;DHT22;23135;51.078;12.108;2023-04-24T02:29:06;10.90;99.90
37242;DHT22;23135;51.078;12.108;2023-04-24T02:31:32;10.80;99.90
37242;DHT22;23135;51.078;12.108;2023-04-24T02:33:58;10.80;99.90
37242;DHT22;23135;51.078;12.108;2023-04-24T02:36:23;10.80;99.90
37242;DHT22;23135;51.078;12.108;2023-04-24T02:38:49;10.80;99.90
37242;DHT22;23135;51.078;12.108;2023-04-24T02:41:14;10.80;99.90
37242;DHT22;23135;51.078;12.108;2023-04-24T02:43:40;10.80;99.90
37242;DHT22;23135;51.078;12.108;2023-04-24T02:46:05;10.80;99.90
37242;DHT22;23135;51.078;12.108;2023-04-24T02:48:31;10.70;99.90
37242;DHT22;23135;51.078;12.108;2023-04-24T02:50:56;10.70;99.90
37242;DHT22;23135;51.078;12.108;2023-04-24T02:53:23;10.70;99.90
37242;DHT22;23135;51.078;12.108;2023-04-24T02:55:48;10.60;99.90
37242;DHT22;23135;51.078;12.108;2023-04-24T02:58:14;10.60;99.90
37242;DHT22;23135;51.078;12.108;2023-04-24T03:00:41;10.60;99.90
37242;DHT22;23135;51.078;12.108;2023-04-24T03:03:06;10.60;99.90
37242;DHT22;23135;51.078;12.108;2023-04-24T03:05:32;10.50;99.90
37242;DHT22;23135;51.078;12.108;2023-04-24T03:07:58;10.50;99.90
37242;DHT22;23135;51.078;12.108;2023-04-24T03:10:23;10.50;99.90
37242;DHT22;23135;51.078;12.108;2023-04-24T03:12:49;10.50;99.90
37242;DHT22;23135;51.078;12.108;2023-04-24T03:15:15;10.50;99.90
37242;DHT22;23135;51.078;12.108;2023-04-24T03:17:41;10.50;99.90
37242;DHT22;23135;51.078;12.108;2023-04-24T03:20:07;10.50;99.90
37242;DHT22;23135;51.078;12.108;2023-04-24T03:22:33;10.50;99.90
37242;DHT22;23135;51.078;12.108;2023-04-24T03:25:00;10.50;99.90
37242;DHT22;23135;51.078;12.108;2023-04-24T03:27:26;10.50;99.90
37242;DHT22;23135;51.078;12.108;2023-04-24T03:29:51;10.40;99.90
37242;DHT22;23135;51.078;12.108;2023-04-24T03:32:23;10.40;99.90
37242;DHT22;23135;51.078;12.108;2023-04-24T03:34:49;10.40;99.90
37242;DHT22;23135;51.078;12.108;2023-04-24T03:37:16;10.40;99.90
37242;DHT22;23135;51.078;12.108;2023-04-24T03:39:42;10.40;99.90
37242;DHT22;23135;51.078;12.108;2023-04-24T03:42:07;10.40;99.90
37242;DHT22;23135;51.078;12.108;2023-04-24T03:44:34;10.30;99.90
37242;DHT22;23135;51.078;12.108;2023-04-24T03:47:00;10.40;99.90
37242;DHT22;23135;51.078;12.108;2023-04-24T03:49:25;10.30;99.90
37242;DHT22;23135;51.078;12.108;2023-04-24T03:51:51;10.30;99.90
37242;DHT22;23135;51.078;12.108;2023-04-24T03:54:18;10.30;99.90
37242;DHT22;23135;51.078;12.108;2023-04-24T03:56:43;10.30;99.90
37242;DHT22;23135;51.078;12.108;2023-04-24T03:59:09;10.30;99.90
37242;DHT22;23135;51.078;12.108;2023-04-24T04:01:34;10.30;99.90
37242;DHT22;23135;51.078;12.108;2023-04-24T04:04:03;10.30;99.90
37242;DHT22;23135;51.078;12.108;2023-04-24T04:06:29;10.40;99.90
37242;DHT22;23135;51.078;12.108;2023-04-24T04:08:56;10.40;99.90
37242;DHT22;23135;51.078;12.108;2023-04-24T04:11:22;10.40;99.90
37242;DHT22;23135;51.078;12.108;2023-04-24T04:13:47;10.50;99.90
37242;DHT22;23135;51.078;12.108;2023-04-24T04:16:13;10.50;99.90
37242;DHT22;23135;51.078;12.108;2023-04-24T04:18:39;10.50;99.90
37242;DHT22;23135;51.078;12.108;2023-04-24T04:21:05;10.50;99.90
37242;DHT22;23135;51.078;12.108;2023-04-24T04:23:30;10.50;99.90
37242;DHT22;23135;51.078;12.108;2023-04-24T04:25:57;10.40;99.90
37242;DHT22;23135;51.078;12.108;2023-04-24T04:28:23;10.40;99.90
37242;DHT22;23135;51.078;12.108;2023-04-24T04:30:50;10.40;99.90
37242;DHT22;23135;51.078;12.108;2023-04-24T04:33:19;10.40;99.90
37242;DHT22;23135;51.078;12.108;2023-04-24T04:35:45;10.40;99.90
37242;DHT22;23135;51.078;12.108;2023-04-24T04:38:14;10.40;99.90
37242;DHT22;23135;51.078;12.108;2023-04-24T04:40:40;10.40;99.90
37242;DHT22;23135;51.078;12.108;2023-04-24T04:43:05;10.40;99.90
37242;DHT22;23135;51.078;12.108;2023-04-24T04:45:31;10.40;99.90
37242;DHT22;23135;51.078;12.108;2023-04-24T04:47:58;10.50;99.90
37242;DHT22;23135;51.078;12.108;2023-04-24T04:50:26;10.50;99.90
37242;DHT22;23135;51.078;12.108;2023-04-24T04:52:52;10.50;99.90
37242;DHT22;23135;51.078;12.108;2023-04-24T04:55:17;10.50;99.90
37242;DHT22;23135;51.078;12.108;2023-04-24T04:57:45;10.60;99.90
37242;DHT22;23135;51.078;12.108;2023-04-24T05:00:11;10.60;99.90
37242;DHT22;23135;51.078;12.108;2023-04-24T05:02:38;10.70;99.90
37242;DHT22;23135;51.078;12.108;2023-04-24T05:05:04;10.70;99.90
37242;DHT22;23135;51.078;12.108;2023-04-24T05:07:31;10.70;99.90
37242;DHT22;23135;51.078;12.108;2023-04-24T05:09:56;10.80;99.90
37242;DHT22;23135;51.078;12.108;2023-04-24T05:12:22;10.80;99.90
37242;DHT22;23135;51.078;12.108;2023-04-24T05:14:47;10.80;99.90
37242;DHT22;23135;51.078;12.108;2023-04-24T05:17:13;10.80;99.90
37242;DHT22;23135;51.078;12.108;2023-04-24T05:19:38;10.80;99.90
37242;DHT22;23135;51.078;12.108;2023-04-24T05:22:04;10.80;99.90
37242;DHT22;23135;51.078;12.108;2023-04-24T05:24:33;10.90;99.90
37242;DHT22;23135;51.078;12.108;2023-04-24T05:26:59;10.90;99.90
37242;DHT22;23135;51.078;12.108;2023-04-24T05:29:24;10.90;99.90
37242;DHT22;23135;51.078;12.108;2023-04-24T05:31:51;10.90;99.90
37242;DHT22;23135;51.078;12.108;2023-04-24T05:34:17;11.00;99.90
37242;DHT22;23135;51.078;12.108;2023-04-24T05:36:43;11.00;99.90
37242;DHT22;23135;51.078;12.108;2023-04-24T05:39:09;11.10;99.90
37242;DHT22;23135;51.078;12.108;2023-04-24T05:41:34;11.10;99.90
37242;DHT22;23135;51.078;12.108;2023-04-24T05:44:00;11.10;99.90
37242;DHT22;23135;51.078;12.108;2023-04-24T05:46:26;11.10;99.90
37242;DHT22;23135;51.078;12.108;2023-04-24T05:48:51;11.10;99.90
37242;DHT22;23135;51.078;12.108;2023-04-24T05:51:17;11.20;99.90
37242;DHT22;23135;51.078;12.108;2023-04-24T05:53:42;11.20;99.90
37242;DHT22;23135;51.078;12.108;2023-04-24T05:56:08;11.30;99.90
37242;DHT22;23135;51.078;12.108;2023-04-24T05:58:34;11.40;99.90
37242;DHT22;23135;51.078;12.108;2023-04-24T06:00:59;11.50;99.90
37242;DHT22;23135;51.078;12.108;2023-04-24T06:03:26;11.60;99.90
37242;DHT22;23135;51.078;12.108;2023-04-24T06:05:53;11.60;99.90
37242;DHT22;23135;51.078;12.108;2023-04-24T06:08:18;11.70;99.90
37242;DHT22;23135;51.078;12.108;2023-04-24T06:10:44;11.70;99.90
37242;DHT22;23135;51.078;12.108;2023-04-24T06:13:10;11.80;99.90
37242;DHT22;23135;51.078;12.108;2023-04-24T06:15:36;11.80;99.90
37242;DHT22;23135;51.078;12.108;2023-04-24T06:18:02;11.80;99.90
37242;DHT22;23135;51.078;12.108;2023-04-24T06:20:28;11.80;99.90
37242;DHT22;23135;51.078;12.108;2023-04-24T06:22:54;11.80;99.90
37242;DHT22;23135;51.078;12.108;2023-04-24T06:25:20;11.80;99.90
37242;DHT22;23135;51.078;12.108;2023-04-24T06:27:46;11.90;99.90
37242;DHT22;23135;51.078;12.108;2023-04-24T06:30:12;11.90;99.90
37242;DHT22;23135;51.078;12.108;2023-04-24T06:32:38;11.90;99.90
37242;DHT22;23135;51.078;12.108;2023-04-24T06:35:04;12.00;99.90
37242;DHT22;23135;51.078;12.108;2023-04-24T06:37:30;12.10;99.90
37242;DHT22;23135;51.078;12.108;2023-04-24T06:39:55;12.10;99.90
37242;DHT22;23135;51.078;12.108;2023-04-24T06:42:21;12.20;99.90
37242;DHT22;23135;51.078;12.108;2023-04-24T06:44:47;12.20;99.90
37242;DHT22;23135;51.078;12.108;2023-04-24T06:47:13;12.20;99.90
37242;DHT22;23135;51.078;12.108;2023-04-24T06:49:39;12.20;99.90
37242;DHT22;23135;51.078;12.108;2023-04-24T06:52:05;12.20;99.90
37242;DHT22;23135;51.078;12.108;2023-04-24T06:54:31;12.20;99.90
37242;DHT22;23135;51.078;12.108;2023-04-24T06:56:57;12.20;99.90
37242;DHT22;23135;51.078;12.108;2023-04-24T06:59:24;12.20;99.90
37242;DHT22;23135;51.078;12.108;2023-04-24T07:01:50;12.20;99.90
37242;DHT22;23135;51.078;12.108;2023-04-24T07:04:16;12.20;99.90
37242;DHT22;23135;51.078;12.108;2023-04-24T07:06:42;12.30;99.90
37242;DHT22;23135;51.078;12.108;2023-04-24T07:09:08;12.30;99.90
37242;DHT22;23135;51.078;12.108;2023-04-24T07:11:35;12.30;99.90
37242;DHT22;23135;51.078;12.108;2023-04-24T07:14:00;12.40;99.90
37242;DHT22;23135;51.078;12.108;2023-04-24T07:16:26;12.50;99.90
37242;DHT22;23135;51.078;12.108;2023-04-24T07:18:52;12.60;99.90
37242;DHT22;23135;51.078;12.108;2023-04-24T07:21:17;12.70;99.90
37242;DHT22;23135;51.078;12.108;2023-04-24T07:23:43;12.90;99.90
37242;DHT22;23135;51.078;12.108;2023-04-24T07:26:08;13.30;99.90
37242;DHT22;23135;51.078;12.108;2023-04-24T07:28:35;13.50;99.90
37242;DHT22;23135;51.078;12.108;2023-04-24T07:31:00;13.80;99.90
37242;DHT22;23135;51.078;12.108;2023-04-24T07:33:26;14.00;99.90
37242;DHT22;23135;51.078;12.108;2023-04-24T07:35:52;14.20;99.90
37242;DHT22;23135;51.078;12.108;2023-04-24T07:38:18;14.10;99.90
37242;DHT22;23135;51.078;12.108;2023-04-24T07:40:47;14.10;99.90
37242;DHT22;23135;51.078;12.108;2023-04-24T07:43:13;14.30;99.90
37242;DHT22;23135;51.078;12.108;2023-04-24T07:45:38;14.10;99.90
37242;DHT22;23135;51.078;12.108;2023-04-24T07:48:05;14.20;99.90
37242;DHT22;23135;51.078;12.108;2023-04-24T07:50:30;14.20;99.90
37242;DHT22;23135;51.078;12.108;2023-04-24T07:52:56;14.20;99.90
37242;DHT22;23135;51.078;12.108;2023-04-24T07:55:22;14.20;99.90
37242;DHT22;23135;51.078;12.108;2023-04-24T07:57:47;14.10;99.90
37242;DHT22;23135;51.078;12.108;2023-04-24T08:00:13;14.10;99.90
37242;DHT22;23135;51.078;12.108;2023-04-24T08:02:39;14.40;99.90
37242;DHT22;23135;51.078;12.108;2023-04-24T08:05:06;14.60;99.90
37242;DHT22;23135;51.078;12.108;2023-04-24T08:07:31;14.90;99.90
37242;DHT22;23135;51.078;12.108;2023-04-24T08:09:57;14.90;99.90
37242;DHT22;23135;51.078;12.108;2023-04-24T08:12:24;14.60;99.90
37242;DHT22;23135;51.078;12.108;2023-04-24T08:14:50;14.40;99.90
37242;DHT22;23135;51.078;12.108;2023-04-24T08:17:17;14.30;99.90
37242;DHT22;23135;51.078;12.108;2023-04-24T08:19:43;14.30;99.90
37242;DHT22;23135;51.078;12.108;2023-04-24T08:22:13;14.40;99.90
37242;DHT22;23135;51.078;12.108;2023-04-24T08:24:38;14.90;99.90
37242;DHT22;23135;51.078;12.108;2023-04-24T08:27:04;15.30;99.90
37242;DHT22;23135;51.078;12.108;2023-04-24T08:29:30;15.30;99.90
37242;DHT22;23135;51.078;12.108;2023-04-24T08:31:56;15.10;99.90
37242;DHT22;23135;51.078;12.108;2023-04-24T08:34:21;14.70;99.90
37242;DHT22;23135;51.078;12.108;2023-04-24T08:36:47;14.60;99.90
37242;DHT22;23135;51.078;12.108;2023-04-24T08:39:13;14.30;99.90
37242;DHT22;23135;51.078;12.108;2023-04-24T08:41:41;14.40;99.90
37242;DHT22;23135;51.078;12.108;2023-04-24T08:44:09;14.40;99.90
37242;DHT22;23135;51.078;12.108;2023-04-24T08:46:35;14.40;99.90
37242;DHT22;23135;51.078;12.108;2023-04-24T08:49:02;14.40;99.90
37242;DHT22;23135;51.078;12.108;2023-04-24T08:51:29;14.30;99.90
37242;DHT22;23135;51.078;12.108;2023-04-24T08:53:56;14.80;99.90
37242;DHT22;23135;51.078;12.108;2023-04-24T08:56:22;15.20;99.90
37242;DHT22;23135;51.078;12.108;2023-04-24T08:58:50;15.70;99.90
37242;DHT22;23135;51.078;12.108;2023-04-24T09:01:18;16.10;99.90
37242;DHT22;23135;51.078;12.108;2023-04-24T09:03:43;16.30;99.90
37242;DHT22;23135;51.078;12.108;2023-04-24T09:06:10;16.40;99.90
37242;DHT22;23135;51.078;12.108;2023-04-24T09:08:36;16.70;99.90
37242;DHT22;23135;51.078;12.108;2023-04-24T09:11:03;16.20;99.90
37242;DHT22;23135;51.078;12.108;2023-04-24T09:13:30;16.10;99.90
37242;DHT22;23135;51.078;12.108;2023-04-24T09:15:56;15.70;99.90
37242;DHT22;23135;51.078;12.108;2023-04-24T09:18:22;15.80;99.90
37242;DHT22;23135;51.078;12.108;2023-04-24T09:21:02;15.60;99.90
37242;DHT22;23135;51.078;12.108;2023-04-24T09:23:32;15.40;99.90
37242;DHT22;23135;51.078;12.108;2023-04-24T09:25:58;15.40;99.90
37242;DHT22;23135;51.078;12.108;2023-04-24T09:28:45;15.20;99.90
37242;DHT22;23135;51.078;12.108;2023-04-24T09:31:17;15.20;99.90
37242;DHT22;23135;51.078;12.108;2023-04-24T09:34:00;15.00;99.90
37242;DHT22;23135;51.078;12.108;2023-04-24T09:39:00;15.50;99.90
37242;DHT22;23135;51.078;12.108;2023-04-24T09:41:27;15.70;99.90
37242;DHT22;23135;51.078;12.108;2023-04-24T09:43:54;15.20;99.90
37242;DHT22;23135;51.078;12.108;2023-04-24T09:46:20;15.20;99.90
37242;DHT22;23135;51.078;12.108;2023-04-24T09:48:47;15.00;99.90
37242;DHT22;23135;51.078;12.108;2023-04-24T09:51:13;14.90;99.90
37242;DHT22;23135;51.078;12.108;2023-04-24T09:53:45;15.10;99.90
37242;DHT22;23135;51.078;12.108;2023-04-24T09:56:11;15.50;99.90
37242;DHT22;23135;51.078;12.108;2023-04-24T09:58:39;16.00;99.70
37242;DHT22;23135;51.078;12.108;2023-04-24T10:01:05;16.10;97.90
37242;DHT22;23135;51.078;12.108;2023-04-24T10:03:32;15.80;97.50
37242;DHT22;23135;51.078;12.108;2023-04-24T10:06:02;15.80;98.00
37242;DHT22;23135;51.078;12.108;2023-04-24T10:08:34;16.00;98.00
37242;DHT22;23135;51.078;12.108;2023-04-24T10:11:01;15.90;96.40
37242;DHT22;23135;51.078;12.108;2023-04-24T10:13:28;16.20;96.60
37242;DHT22;23135;51.078;12.108;2023-04-24T10:15:54;15.80;96.20
37242;DHT22;23135;51.078;12.108;2023-04-24T10:18:20;15.80;96.40
37242;DHT22;23135;51.078;12.108;2023-04-24T10:20:47;15.50;96.20
37242;DHT22;23135;51.078;12.108;2023-04-24T10:23:12;15.40;96.00
37242;DHT22;23135;51.078;12.108;2023-04-24T10:25:38;15.10;96.10
37242;DHT22;23135;51.078;12.108;2023-04-24T10:28:04;15.30;97.00
37242;DHT22;23135;51.078;12.108;2023-04-24T10:30:34;15.70;96.30
37242;DHT22;23135;51.078;12.108;2023-04-24T10:33:04;16.10;96.90
37242;DHT22;23135;51.078;12.108;2023-04-24T10:35:36;16.10;95.10
37242;DHT22;23135;51.078;12.108;2023-04-24T10:38:09;16.00;94.60
37242;DHT22;23135;51.078;12.108;2023-04-24T10:40:37;15.70;94.80
37242;DHT22;23135;51.078;12.108;2023-04-24T10:43:06;15.90;95.10
37242;DHT22;23135;51.078;12.108;2023-04-24T10:45:33;16.10;95.60
37242;DHT22;23135;51.078;12.108;2023-04-24T10:48:02;16.50;95.90
37242;DHT22;23135;51.078;12.108;2023-04-24T10:50:29;16.50;94.90
37242;DHT22;23135;51.078;12.108;2023-04-24T10:53:06;16.90;95.00
37242;DHT22;23135;51.078;12.108;2023-04-24T10:58:07;16.00;94.80
37242;DHT22;23135;51.078;12.108;2023-04-24T11:00:36;15.80;95.30
37242;DHT22;23135;51.078;12.108;2023-04-24T11:03:07;15.80;95.50
37242;DHT22;23135;51.078;12.108;2023-04-24T11:08:26;15.40;95.90
37242;DHT22;23135;51.078;12.108;2023-04-24T11:10:56;15.30;96.10
37242;DHT22;23135;51.078;12.108;2023-04-24T11:13:23;15.20;96.60
37242;DHT22;23135;51.078;12.108;2023-04-24T11:16:14;15.20;96.80
37242;DHT22;23135;51.078;12.108;2023-04-24T11:18:42;15.20;96.20
37242;DHT22;23135;51.078;12.108;2023-04-24T11:21:16;15.20;96.20
37242;DHT22;23135;51.078;12.108;2023-04-24T11:23:42;15.50;96.10
37242;DHT22;23135;51.078;12.108;2023-04-24T11:26:12;16.10;95.30
37242;DHT22;23135;51.078;12.108;2023-04-24T11:28:45;16.30;95.70
37242;DHT22;23135;51.078;12.108;2023-04-24T11:31:36;16.30;94.10
37242;DHT22;23135;51.078;12.108;2023-04-24T11:34:20;16.80;93.20
37242;DHT22;23135;51.078;12.108;2023-04-24T11:36:47;17.30;92.20
37242;DHT22;23135;51.078;12.108;2023-04-24T11:39:14;17.30;92.00
37242;DHT22;23135;51.078;12.108;2023-04-24T11:41:39;17.00;91.00
37242;DHT22;23135;51.078;12.108;2023-04-24T11:44:09;16.70;92.00
37242;DHT22;23135;51.078;12.108;2023-04-24T11:46:35;16.20;91.40
37242;DHT22;23135;51.078;12.108;2023-04-24T11:49:03;15.90;92.40
37242;DHT22;23135;51.078;12.108;2023-04-24T11:51:28;15.60;92.80
37242;DHT22;23135;51.078;12.108;2023-04-24T11:53:55;15.40;92.70
37242;DHT22;23135;51.078;12.108;2023-04-24T11:56:22;15.20;93.60
37242;DHT22;23135;51.078;12.108;2023-04-24T11:58:48;15.30;94.10
37242;DHT22;23135;51.078;12.108;2023-04-24T12:01:14;15.20;93.90
37242;DHT22;23135;51.078;12.108;2023-04-24T12:03:40;15.20;93.60
37242;DHT22;23135;51.078;12.108;2023-04-24T12:06:11;15.20;93.50
37242;DHT22;23135;51.078;12.108;2023-04-24T12:08:37;15.30;93.00
37242;DHT22;23135;51.078;12.108;2023-04-24T12:11:04;15.40;92.80
37242;DHT22;23135;51.078;12.108;2023-04-24T12:13:32;15.30;93.30
37242;DHT22;23135;51.078;12.108;2023-04-24T12:15:58;15.50;92.80
37242;DHT22;23135;51.078;12.108;2023-04-24T12:18:24;15.60;92.60
37242;DHT22;23135;51.078;12.108;2023-04-24T12:20:50;15.50;91.80
37242;DHT22;23135;51.078;12.108;2023-04-24T12:23:16;15.50;91.60
37242;DHT22;23135;51.078;12.108;2023-04-24T12:25:42;15.70;92.20
37242;DHT22;23135;51.078;12.108;2023-04-24T12:28:10;15.80;91.30
37242;DHT22;23135;51.078;12.108;2023-04-24T12:30:54;15.90;91.70
37242;DHT22;23135;51.078;12.108;2023-04-24T12:33:21;15.90;91.20
37242;DHT22;23135;51.078;12.108;2023-04-24T12:35:50;15.90;91.70
37242;DHT22;23135;51.078;12.108;2023-04-24T12:38:16;15.60;91.60
37242;DHT22;23135;51.078;12.108;2023-04-24T12:40:46;15.50;91.50
37242;DHT22;23135;51.078;12.108;2023-04-24T12:43:19;15.50;92.30
37242;DHT22;23135;51.078;12.108;2023-04-24T12:45:47;15.50;93.30
37242;DHT22;23135;51.078;12.108;2023-04-24T12:48:12;15.70;92.50
37242;DHT22;23135;51.078;12.108;2023-04-24T12:50:39;15.90;92.30
37242;DHT22;23135;51.078;12.108;2023-04-24T12:53:07;16.60;92.70
37242;DHT22;23135;51.078;12.108;2023-04-24T12:55:34;16.80;89.80
37242;DHT22;23135;51.078;12.108;2023-04-24T12:57:59;16.40;90.00
37242;DHT22;23135;51.078;12.108;2023-04-24T13:00:25;16.60;89.40
37242;DHT22;23135;51.078;12.108;2023-04-24T13:02:50;16.70;90.40
37242;DHT22;23135;51.078;12.108;2023-04-24T13:05:16;16.70;89.60
37242;DHT22;23135;51.078;12.108;2023-04-24T13:07:42;17.20;87.50
37242;DHT22;23135;51.078;12.108;2023-04-24T13:10:08;17.80;86.50
37242;DHT22;23135;51.078;12.108;2023-04-24T13:12:35;17.80;85.10
37242;DHT22;23135;51.078;12.108;2023-04-24T13:15:00;17.80;86.90
37242;DHT22;23135;51.078;12.108;2023-04-24T13:17:26;18.10;87.20
37242;DHT22;23135;51.078;12.108;2023-04-24T13:19:53;17.40;85.00
37242;DHT22;23135;51.078;12.108;2023-04-24T13:22:20;17.50;86.30
37242;DHT22;23135;51.078;12.108;2023-04-24T13:24:46;17.80;85.00
37242;DHT22;23135;51.078;12.108;2023-04-24T13:27:14;17.30;84.30
37242;DHT22;23135;51.078;12.108;2023-04-24T13:29:40;16.70;85.80
37242;DHT22;23135;51.078;12.108;2023-04-24T13:32:07;17.10;88.10
37242;DHT22;23135;51.078;12.108;2023-04-24T13:34:32;16.80;87.60
37242;DHT22;23135;51.078;12.108;2023-04-24T13:36:59;16.40;88.70
37242;DHT22;23135;51.078;12.108;2023-04-24T13:39:25;16.30;89.90
37242;DHT22;23135;51.078;12.108;2023-04-24T13:41:51;16.00;90.10
37242;DHT22;23135;51.078;12.108;2023-04-24T13:44:18;15.90;90.10
37242;DHT22;23135;51.078;12.108;2023-04-24T13:46:46;15.70;88.80
37242;DHT22;23135;51.078;12.108;2023-04-24T13:49:12;15.50;89.30
37242;DHT22;23135;51.078;12.108;2023-04-24T13:51:39;15.50;90.50
37242;DHT22;23135;51.078;12.108;2023-04-24T13:54:05;15.40;90.40
37242;DHT22;23135;51.078;12.108;2023-04-24T13:56:31;15.40;90.70
37242;DHT22;23135;51.078;12.108;2023-04-24T13:58:56;15.50;90.60
37242;DHT22;23135;51.078;12.108;2023-04-24T14:01:22;15.70;90.00
37242;DHT22;23135;51.078;12.108;2023-04-24T14:03:52;15.90;90.50
37242;DHT22;23135;51.078;12.108;2023-04-24T14:06:18;15.90;90.60
37242;DHT22;23135;51.078;12.108;2023-04-24T14:08:44;15.50;90.40
37242;DHT22;23135;51.078;12.108;2023-04-24T14:11:10;15.30;91.90
37242;DHT22;23135;51.078;12.108;2023-04-24T14:13:36;15.10;91.00
37242;DHT22;23135;51.078;12.108;2023-04-24T14:16:03;14.90;91.90
37242;DHT22;23135;51.078;12.108;2023-04-24T14:18:29;14.70;91.40
37242;DHT22;23135;51.078;12.108;2023-04-24T14:20:54;14.60;91.70
37242;DHT22;23135;51.078;12.108;2023-04-24T14:23:20;14.50;92.50
37242;DHT22;23135;51.078;12.108;2023-04-24T14:25:45;14.50;92.50
37242;DHT22;23135;51.078;12.108;2023-04-24T14:28:13;14.40;92.60
37242;DHT22;23135;51.078;12.108;2023-04-24T14:30:39;14.50;92.60
37242;DHT22;23135;51.078;12.108;2023-04-24T14:33:06;14.60;93.00
37242;DHT22;23135;51.078;12.108;2023-04-24T14:35:31;15.10;93.40
37242;DHT22;23135;51.078;12.108;2023-04-24T14:37:59;15.20;93.30
37242;DHT22;23135;51.078;12.108;2023-04-24T14:40:25;15.30;93.00
37242;DHT22;23135;51.078;12.108;2023-04-24T14:42:51;15.30;91.50
37242;DHT22;23135;51.078;12.108;2023-04-24T14:45:18;15.40;92.80
37242;DHT22;23135;51.078;12.108;2023-04-24T14:47:44;15.50;92.20
37242;DHT22;23135;51.078;12.108;2023-04-24T14:50:09;15.00;92.30
37242;DHT22;23135;51.078;12.108;2023-04-24T14:52:36;14.60;93.20
37242;DHT22;23135;51.078;12.108;2023-04-24T14:55:01;14.40;94.00
37242;DHT22;23135;51.078;12.108;2023-04-24T14:57:27;14.20;94.10
37242;DHT22;23135;51.078;12.108;2023-04-24T14:59:53;14.10;94.90
37242;DHT22;23135;51.078;12.108;2023-04-24T15:02:18;14.00;95.20
37242;DHT22;23135;51.078;12.108;2023-04-24T15:04:44;14.00;95.50
37242;DHT22;23135;51.078;12.108;2023-04-24T15:07:09;13.90;95.20
37242;DHT22;23135;51.078;12.108;2023-04-24T15:09:35;13.90;95.80
37242;DHT22;23135;51.078;12.108;2023-04-24T15:12:00;13.70;96.00
37242;DHT22;23135;51.078;12.108;2023-04-24T15:14:27;13.60;96.00
37242;DHT22;23135;51.078;12.108;2023-04-24T15:16:52;13.30;96.70
37242;DHT22;23135;51.078;12.108;2023-04-24T15:19:18;13.20;96.80